Time;durP1;ratioP1;P1;durP2;ratioP2;P2;SDS_P1;SDS_P2;PMS_P1;PMS_P2;Temp;Humidity;BMP_temperature;BMP_pressure;BME280_temperature;BME280_humidity;BME280_pressure;Samples;Min_cycle;Max_cycle;Signal;HPM_P1;HPM_P2
2023/01/31 00:01:08;;;;;;;21.90;4.30;;;4.10;99.90;;;;;;5077622;28;20779;-63
2023/01/31 00:03:34;;;;;;;28.80;4.78;;;4.10;99.90;;;;;;5078834;28;20469;-62
2023/01/31 00:06:17;;;;;;;25.77;4.85;;;4.00;99.90;;;;;;5082838;28;20765;-63
2023/01/31 00:08:45;;;;;;;25.27;5.43;;;4.00;99.90;;;;;;5077961;28;20477;-63
2023/01/31 00:11:12;;;;;;;22.23;5.50;;;3.90;99.90;;;;;;5080250;28;20414;-62
2023/01/31 00:13:39;;;;;;;22.35;4.88;;;3.90;99.90;;;;;;5081096;28;20806;-63
2023/01/31 00:16:07;;;;;;;26.02;6.00;;;3.90;99.90;;;;;;5079542;28;20464;-63
2023/01/31 00:18:34;;;;;;;28.85;6.13;;;3.90;99.90;;;;;;5080476;28;20887;-63
2023/01/31 00:21:06;;;;;;;25.58;6.05;;;3.90;99.90;;;;;;5079718;28;20415;-63
2023/01/31 00:23:34;;;;;;;27.95;5.88;;;3.80;99.90;;;;;;5080786;28;20416;-63
2023/01/31 00:26:08;;;;;;;28.73;6.50;;;3.90;99.90;;;;;;5080037;28;20426;-63
2023/01/31 00:28:35;;;;;;;26.27;5.75;;;4.00;99.90;;;;;;5077377;28;20415;-63
2023/01/31 00:31:01;;;;;;;25.13;5.78;;;4.10;99.90;;;;;;5080246;28;20419;-62
2023/01/31 00:33:28;;;;;;;26.23;6.23;;;4.10;99.90;;;;;;5080162;28;20433;-62
2023/01/31 00:35:55;;;;;;;29.58;5.72;;;4.10;99.90;;;;;;5079950;28;20423;-63
2023/01/31 00:38:21;;;;;;;27.97;5.97;;;4.00;99.90;;;;;;5081114;28;20411;-61
2023/01/31 00:40:53;;;;;;;24.52;5.53;;;4.10;99.90;;;;;;5079547;28;20939;-63
2023/01/31 00:43:20;;;;;;;23.90;6.18;;;4.10;99.90;;;;;;5080895;28;20821;-63
2023/01/31 00:45:47;;;;;;;23.25;5.93;;;4.10;99.90;;;;;;5079013;28;20416;-62
2023/01/31 00:48:14;;;;;;;23.10;5.73;;;4.10;99.90;;;;;;5082007;28;20467;-63
2023/01/31 00:50:40;;;;;;;26.10;6.05;;;4.10;99.90;;;;;;5078450;28;20423;-64
2023/01/31 00:53:07;;;;;;;27.67;5.05;;;4.00;99.90;;;;;;5070023;28;20841;-64
2023/01/31 00:55:34;;;;;;;28.27;5.80;;;4.00;99.90;;;;;;5078514;28;20473;-61
2023/01/31 00:58:02;;;;;;;27.23;5.80;;;4.00;99.90;;;;;;5080813;28;20856;-63
2023/01/31 01:00:28;;;;;;;26.33;5.28;;;4.00;99.90;;;;;;5074328;28;20447;-60
2023/01/31 01:02:55;;;;;;;22.23;5.23;;;4.10;99.90;;;;;;5023054;28;1708909;-63
2023/01/31 01:05:22;;;;;;;26.67;6.20;;;4.10;99.90;;;;;;5074833;28;20422;-64
2023/01/31 01:07:49;;;;;;;20.52;5.45;;;4.10;99.90;;;;;;5078968;28;20431;-63
2023/01/31 01:10:15;;;;;;;22.83;6.05;;;4.10;99.90;;;;;;5082922;28;20819;-60
2023/01/31 01:12:42;;;;;;;23.20;5.68;;;4.10;99.90;;;;;;5074514;28;20425;-64
2023/01/31 01:15:10;;;;;;;24.33;5.68;;;4.10;99.90;;;;;;5078683;28;20416;-64
2023/01/31 01:17:37;;;;;;;23.97;5.33;;;4.10;99.90;;;;;;5077887;28;20464;-63
2023/01/31 01:20:05;;;;;;;29.90;6.13;;;4.10;99.90;;;;;;5079980;28;20471;-62
2023/01/31 01:22:33;;;;;;;28.42;5.60;;;4.10;99.90;;;;;;5079519;28;20422;-63
2023/01/31 01:25:00;;;;;;;24.85;5.53;;;4.10;99.90;;;;;;5078899;28;20443;-63
2023/01/31 01:27:27;;;;;;;26.88;5.68;;;4.00;99.90;;;;;;5076734;28;20432;-62
2023/01/31 01:29:54;;;;;;;27.45;5.68;;;4.00;99.90;;;;;;5075560;28;20826;-62
2023/01/31 01:32:22;;;;;;;24.17;5.65;;;4.00;99.90;;;;;;5079310;28;20414;-64
2023/01/31 01:34:48;;;;;;;21.35;6.00;;;4.10;99.90;;;;;;5074840;28;20467;-63
2023/01/31 01:37:18;;;;;;;26.20;5.30;;;4.10;99.90;;;;;;5082161;28;20425;-63
2023/01/31 01:39:45;;;;;;;23.52;5.68;;;4.20;99.90;;;;;;5071590;28;20421;-62
2023/01/31 01:42:15;;;;;;;20.92;5.35;;;4.20;99.90;;;;;;5077869;28;20431;-63
2023/01/31 01:44:49;;;;;;;24.83;5.40;;;4.00;99.90;;;;;;5076611;28;20836;-64
2023/01/31 01:47:28;;;;;;;25.92;5.50;;;3.90;99.90;;;;;;5075910;28;20787;-63
2023/01/31 01:50:00;;;;;;;26.48;5.72;;;3.80;99.90;;;;;;5079470;28;20407;-63
2023/01/31 01:52:28;;;;;;;24.88;6.10;;;3.80;99.90;;;;;;5073960;28;20422;-63
2023/01/31 01:55:00;;;;;;;23.93;5.30;;;3.70;99.90;;;;;;5073142;28;20435;-61
2023/01/31 01:57:32;;;;;;;19.70;4.90;;;3.60;99.90;;;;;;5077917;28;20481;-62
2023/01/31 02:00:08;;;;;;;19.05;4.70;;;3.60;99.90;;;;;;5079880;28;20441;-63
2023/01/31 02:02:36;;;;;;;25.55;4.78;;;3.60;99.90;;;;;;5076066;28;20501;-63
2023/01/31 02:05:04;;;;;;;21.33;4.85;;;3.60;99.90;;;;;;5082800;28;20409;-64
2023/01/31 02:07:31;;;;;;;20.92;4.85;;;3.60;99.90;;;;;;5076963;28;20420;-63
2023/01/31 02:10:02;;;;;;;17.25;4.78;;;3.70;99.90;;;;;;5079974;28;20910;-62
2023/01/31 02:12:30;;;;;;;21.80;5.80;;;3.70;99.90;;;;;;5073499;28;20411;-63
2023/01/31 02:14:57;;;;;;;24.67;5.15;;;3.60;99.90;;;;;;5079868;28;20412;-63
2023/01/31 02:17:25;;;;;;;19.92;5.00;;;3.70;99.90;;;;;;5074799;28;20795;-63
2023/01/31 02:20:03;;;;;;;23.88;5.47;;;3.80;99.90;;;;;;5080325;28;20419;-63
2023/01/31 02:22:33;;;;;;;21.77;5.15;;;3.70;99.90;;;;;;5071130;28;20423;-63
2023/01/31 02:25:43;;;;;;;23.75;5.22;;;3.80;99.90;;;;;;5079653;28;20419;-62
2023/01/31 02:28:44;;;;;;;21.23;5.22;;;3.80;99.90;;;;;;5081114;28;20809;-63
2023/01/31 02:31:43;;;;;;;22.55;4.88;;;3.70;99.90;;;;;;5071556;28;20542;-61
2023/01/31 02:34:16;;;;;;;18.70;4.60;;;3.70;99.90;;;;;;5074871;28;20968;-62
2023/01/31 02:36:55;;;;;;;22.73;4.60;;;3.70;99.90;;;;;;5078720;28;20417;-63
2023/01/31 02:39:29;;;;;;;20.00;4.88;;;3.70;99.90;;;;;;5078140;28;20409;-62
2023/01/31 02:42:04;;;;;;;20.50;4.40;;;3.60;99.90;;;;;;5074200;28;20441;-63
2023/01/31 02:47:29;;;;;;;20.25;4.78;;;3.70;99.90;;;;;;5071188;28;20399;-63
2023/01/31 02:50:03;;;;;;;21.17;4.38;;;3.70;99.90;;;;;;5079308;28;20407;-64
2023/01/31 02:52:37;;;;;;;20.17;4.80;;;3.70;99.90;;;;;;5078318;28;20413;-63
2023/01/31 02:57:59;;;;;;;22.48;4.78;;;3.70;99.90;;;;;;5075994;28;20381;-63
2023/01/31 03:00:26;;;;;;;20.88;4.20;;;3.70;99.90;;;;;;5078147;28;20416;-63
2023/01/31 03:02:53;;;;;;;23.77;4.55;;;3.60;99.90;;;;;;5072823;28;20435;-63
2023/01/31 03:05:21;;;;;;;17.38;4.93;;;3.70;99.90;;;;;;5081077;28;20475;-63
2023/01/31 03:07:51;;;;;;;20.38;4.40;;;3.70;99.90;;;;;;5079924;28;20430;-63
2023/01/31 03:10:39;;;;;;;18.67;4.78;;;3.70;99.90;;;;;;5078412;28;20830;-63
2023/01/31 03:13:22;;;;;;;21.77;5.25;;;3.70;99.90;;;;;;5081571;28;20402;-64
2023/01/31 03:19:03;;;;;;;22.00;4.68;;;3.70;99.90;;;;;;5015579;28;20415;-63
2023/01/31 03:21:36;;;;;;;15.05;4.30;;;3.80;99.90;;;;;;5066128;28;20413;-63
2023/01/31 03:24:06;;;;;;;20.45;4.80;;;3.90;99.90;;;;;;5073454;28;20423;-64
2023/01/31 03:26:34;;;;;;;22.58;5.05;;;4.00;99.90;;;;;;5082040;28;20881;-63
2023/01/31 03:29:03;;;;;;;20.60;4.80;;;3.80;99.90;;;;;;5076507;28;20462;-63
2023/01/31 03:31:33;;;;;;;23.80;4.78;;;3.90;99.90;;;;;;5076765;28;20898;-63
2023/01/31 03:34:03;;;;;;;16.85;4.10;;;3.90;99.90;;;;;;5075394;28;20430;-63
2023/01/31 03:36:39;;;;;;;21.40;5.35;;;3.90;99.90;;;;;;5072746;28;20420;-63
2023/01/31 03:39:13;;;;;;;20.85;4.70;;;3.90;99.90;;;;;;5077541;28;20486;-63
2023/01/31 03:41:50;;;;;;;22.40;4.60;;;3.80;99.90;;;;;;5072017;28;20469;-62
2023/01/31 03:44:27;;;;;;;21.33;4.57;;;3.80;99.90;;;;;;5075926;28;20435;-63
2023/01/31 03:46:58;;;;;;;30.35;5.57;;;3.80;99.90;;;;;;5080534;28;20409;-63
2023/01/31 03:49:27;;;;;;;20.15;5.05;;;3.80;99.90;;;;;;5073181;28;20419;-64
2023/01/31 03:52:02;;;;;;;25.57;4.70;;;3.80;99.90;;;;;;5077729;28;20418;-64
2023/01/31 03:54:33;;;;;;;21.40;5.35;;;3.80;99.90;;;;;;5070967;28;20932;-63
2023/01/31 03:57:06;;;;;;;23.55;4.88;;;3.80;99.90;;;;;;5080804;28;20422;-64
2023/01/31 03:59:37;;;;;;;20.80;4.25;;;3.90;99.90;;;;;;5079604;28;20426;-64
2023/01/31 04:02:07;;;;;;;19.60;4.75;;;3.80;99.90;;;;;;5076259;28;20987;-63
2023/01/31 04:04:39;;;;;;;20.70;4.00;;;3.80;99.90;;;;;;5081106;28;20425;-64
2023/01/31 04:07:07;;;;;;;20.70;4.40;;;3.80;99.90;;;;;;5079481;28;20418;-63
2023/01/31 04:09:34;;;;;;;16.33;3.78;;;3.80;99.90;;;;;;5080871;28;20471;-63
2023/01/31 04:12:02;;;;;;;18.63;4.63;;;3.90;99.90;;;;;;5079844;28;20496;-63
2023/01/31 04:14:29;;;;;;;18.38;4.10;;;3.80;99.90;;;;;;5078402;28;20489;-64
2023/01/31 04:16:55;;;;;;;20.80;4.35;;;3.70;99.90;;;;;;5080845;28;20414;-64
2023/01/31 04:19:23;;;;;;;23.92;4.80;;;3.70;99.90;;;;;;5082791;28;20411;-63
2023/01/31 04:21:49;;;;;;;18.58;4.20;;;3.60;99.90;;;;;;5080799;28;20432;-63
2023/01/31 04:24:17;;;;;;;17.25;4.65;;;3.70;99.90;;;;;;5072296;28;20485;-64
2023/01/31 04:26:44;;;;;;;17.13;4.53;;;3.70;99.90;;;;;;5082414;28;20457;-64
2023/01/31 04:29:10;;;;;;;20.77;5.13;;;3.60;99.90;;;;;;5080050;28;20423;-62
2023/01/31 04:31:38;;;;;;;22.08;5.13;;;3.70;99.90;;;;;;5078517;28;20545;-63
2023/01/31 04:34:05;;;;;;;15.83;4.87;;;3.70;99.90;;;;;;5079032;28;21000;-64
2023/01/31 04:36:31;;;;;;;25.95;5.18;;;3.70;99.90;;;;;;5078092;28;20852;-63
2023/01/31 04:38:59;;;;;;;22.33;5.60;;;3.80;99.90;;;;;;5078416;28;20812;-63
2023/01/31 04:41:27;;;;;;;19.95;4.90;;;3.80;99.90;;;;;;5080834;28;20445;-63
2023/01/31 04:43:54;;;;;;;18.83;5.65;;;3.70;99.90;;;;;;5080947;28;20435;-63
2023/01/31 04:46:21;;;;;;;21.73;5.60;;;3.70;99.90;;;;;;5083785;28;20507;-64
2023/01/31 04:48:48;;;;;;;26.92;6.03;;;3.80;99.90;;;;;;5079544;28;20968;-63
2023/01/31 04:51:14;;;;;;;21.80;6.30;;;3.70;99.90;;;;;;5077530;28;20805;-63
2023/01/31 04:53:43;;;;;;;20.67;5.45;;;3.70;99.90;;;;;;5080851;28;20404;-63
2023/01/31 04:56:10;;;;;;;20.35;5.88;;;3.80;99.90;;;;;;5081567;28;20443;-61
2023/01/31 04:58:38;;;;;;;19.45;5.65;;;3.80;99.90;;;;;;5077500;28;20477;-63
2023/01/31 05:01:04;;;;;;;23.10;5.97;;;3.80;99.90;;;;;;5080181;28;20417;-63
2023/01/31 05:03:31;;;;;;;21.92;6.03;;;3.80;99.90;;;;;;5077932;28;20782;-64
2023/01/31 05:05:57;;;;;;;22.57;6.00;;;3.80;99.90;;;;;;5081132;28;20767;-63
2023/01/31 05:08:24;;;;;;;23.63;5.97;;;3.80;99.90;;;;;;5078907;28;20423;-63
2023/01/31 05:10:57;;;;;;;26.07;6.33;;;3.70;99.90;;;;;;5080748;28;20415;-63
2023/01/31 05:13:24;;;;;;;19.45;6.68;;;3.80;99.90;;;;;;5078287;28;20517;-62
2023/01/31 05:15:52;;;;;;;20.02;6.15;;;3.90;99.90;;;;;;5078939;28;20985;-63
2023/01/31 05:18:19;;;;;;;21.98;6.32;;;3.90;99.90;;;;;;5079129;28;20519;-63
2023/01/31 05:20:45;;;;;;;22.80;5.90;;;3.80;99.90;;;;;;5078944;28;20457;-64
2023/01/31 05:23:12;;;;;;;22.30;6.32;;;3.90;99.90;;;;;;5075480;28;20847;-62
2023/01/31 05:25:39;;;;;;;22.87;6.67;;;4.00;99.90;;;;;;5082804;28;20418;-64
2023/01/31 05:28:06;;;;;;;27.52;6.75;;;4.00;99.90;;;;;;5075698;28;20935;-64
2023/01/31 05:30:33;;;;;;;22.40;6.35;;;4.00;99.90;;;;;;5078698;28;20431;-63
2023/01/31 05:33:01;;;;;;;23.60;7.72;;;4.00;99.90;;;;;;5080471;28;20414;-63
2023/01/31 05:35:27;;;;;;;24.85;7.25;;;4.00;99.90;;;;;;5075240;28;20412;-64
2023/01/31 05:37:54;;;;;;;25.17;7.28;;;4.00;99.90;;;;;;5079007;28;20411;-64
2023/01/31 05:40:22;;;;;;;23.92;7.40;;;4.10;99.90;;;;;;5082373;28;20795;-63
2023/01/31 05:42:53;;;;;;;26.52;7.78;;;4.10;99.90;;;;;;5076488;28;20465;-64
2023/01/31 05:45:20;;;;;;;23.13;7.93;;;4.10;99.90;;;;;;5080256;28;20461;-64
2023/01/31 05:47:48;;;;;;;25.13;7.88;;;4.10;99.90;;;;;;5076331;28;20451;-64
2023/01/31 05:50:16;;;;;;;25.58;7.88;;;4.10;99.90;;;;;;5082476;28;20413;-64
2023/01/31 05:52:43;;;;;;;24.10;8.13;;;4.10;99.90;;;;;;5075648;28;20419;-64
2023/01/31 05:55:09;;;;;;;21.98;7.70;;;4.10;99.90;;;;;;5080438;28;20457;-63
2023/01/31 05:57:36;;;;;;;26.40;7.63;;;4.10;99.90;;;;;;5074717;28;20433;-64
2023/01/31 06:00:04;;;;;;;23.13;7.70;;;4.20;99.90;;;;;;5073878;28;20474;-64
2023/01/31 06:02:31;;;;;;;23.45;8.60;;;4.10;99.90;;;;;;5078552;28;20419;-64
2023/01/31 06:04:58;;;;;;;22.08;8.30;;;4.10;99.90;;;;;;5075389;28;20528;-63
2023/01/31 06:07:26;;;;;;;22.63;7.97;;;4.20;99.90;;;;;;5082142;28;20416;-64
2023/01/31 06:09:53;;;;;;;24.50;8.88;;;4.20;99.90;;;;;;5074247;28;20421;-64
2023/01/31 06:12:19;;;;;;;20.77;8.02;;;4.20;99.90;;;;;;5073683;28;20421;-62
2023/01/31 06:14:46;;;;;;;22.55;7.50;;;4.20;99.90;;;;;;5077920;28;20469;-64
2023/01/31 06:17:13;;;;;;;22.33;7.60;;;4.20;99.90;;;;;;5079988;28;20960;-64
2023/01/31 06:19:39;;;;;;;23.45;7.97;;;4.30;99.90;;;;;;5079204;28;20925;-63
2023/01/31 06:22:07;;;;;;;21.67;7.43;;;4.30;99.90;;;;;;5075985;28;20403;-64
2023/01/31 06:24:35;;;;;;;24.67;8.13;;;4.30;99.90;;;;;;5080160;28;20481;-62
2023/01/31 06:27:02;;;;;;;20.23;7.10;;;4.40;99.90;;;;;;5080751;28;20408;-62
2023/01/31 06:29:28;;;;;;;20.58;7.50;;;4.40;99.90;;;;;;5081816;28;20468;-64
2023/01/31 06:31:55;;;;;;;21.83;7.07;;;4.40;99.90;;;;;;5079581;28;20419;-64
2023/01/31 06:34:22;;;;;;;24.27;7.10;;;4.40;99.90;;;;;;5081759;28;20410;-64
2023/01/31 06:36:48;;;;;;;19.95;7.03;;;4.50;99.90;;;;;;5080829;28;20455;-63
2023/01/31 06:39:15;;;;;;;19.40;6.60;;;4.50;99.90;;;;;;5079613;28;20519;-64
2023/01/31 06:41:43;;;;;;;22.70;7.68;;;4.50;99.90;;;;;;5080646;28;20877;-64
2023/01/31 06:44:10;;;;;;;21.33;7.20;;;4.60;99.90;;;;;;5081593;28;20421;-64
2023/01/31 06:46:37;;;;;;;23.60;7.85;;;4.60;99.90;;;;;;5079448;28;20412;-63
2023/01/31 06:49:04;;;;;;;30.10;8.50;;;4.50;99.90;;;;;;5079781;28;20857;-63
2023/01/31 06:51:31;;;;;;;28.88;8.77;;;4.50;99.90;;;;;;5079168;28;20491;-63
2023/01/31 06:53:58;;;;;;;23.70;8.15;;;4.40;99.90;;;;;;5080818;28;20765;-64
2023/01/31 06:56:25;;;;;;;23.58;8.32;;;4.50;99.90;;;;;;5081423;28;20414;-62
2023/01/31 06:58:52;;;;;;;23.38;8.50;;;4.50;99.90;;;;;;5080013;28;20409;-64
2023/01/31 07:01:21;;;;;;;24.70;8.10;;;4.40;99.90;;;;;;5078459;28;20412;-64
2023/01/31 07:03:48;;;;;;;24.40;8.32;;;4.40;99.90;;;;;;5075304;28;20984;-64
2023/01/31 07:06:17;;;;;;;24.25;9.32;;;4.40;99.90;;;;;;5079747;28;21159;-64
2023/01/31 07:08:43;;;;;;;23.80;8.98;;;4.40;99.90;;;;;;5081376;28;20838;-64
2023/01/31 07:11:10;;;;;;;27.40;8.30;;;4.30;99.90;;;;;;5078710;28;20833;-64
2023/01/31 07:13:37;;;;;;;21.85;8.60;;;4.30;99.90;;;;;;5080270;28;20466;-64
2023/01/31 07:16:05;;;;;;;25.73;8.60;;;4.30;99.90;;;;;;5079009;28;20465;-64
2023/01/31 07:18:32;;;;;;;25.58;9.18;;;4.20;99.90;;;;;;5079157;28;20416;-64
2023/01/31 07:20:59;;;;;;;24.63;8.55;;;4.20;99.90;;;;;;5081561;28;20406;-63
2023/01/31 07:23:26;;;;;;;25.30;8.90;;;4.20;99.90;;;;;;5080345;28;20419;-64
2023/01/31 07:25:53;;;;;;;27.85;8.82;;;4.20;99.90;;;;;;5078550;28;20477;-63
2023/01/31 07:28:19;;;;;;;25.90;9.05;;;4.20;99.90;;;;;;5081066;28;20476;-63
2023/01/31 07:30:47;;;;;;;23.52;8.57;;;4.20;99.90;;;;;;5081591;28;20409;-64
2023/01/31 07:33:15;;;;;;;27.05;8.38;;;4.30;99.90;;;;;;5082665;28;20428;-63
2023/01/31 07:35:42;;;;;;;24.83;8.88;;;4.30;99.90;;;;;;5083484;28;20816;-62
2023/01/31 07:38:09;;;;;;;27.60;9.23;;;4.30;99.90;;;;;;5084950;28;20484;-62
2023/01/31 07:40:35;;;;;;;25.83;9.15;;;4.40;99.90;;;;;;5082892;28;21059;-62
2023/01/31 07:43:02;;;;;;;26.13;8.38;;;4.30;99.90;;;;;;5082820;28;20845;-61
2023/01/31 07:45:29;;;;;;;25.08;8.70;;;4.40;99.90;;;;;;5078686;28;20454;-62
2023/01/31 07:47:58;;;;;;;24.90;8.63;;;4.40;99.90;;;;;;5083024;28;20832;-62
2023/01/31 07:50:26;;;;;;;25.63;8.10;;;4.40;99.90;;;;;;5085102;28;20857;-62
2023/01/31 07:52:53;;;;;;;23.67;7.82;;;4.40;99.90;;;;;;5083636;28;20887;-62
2023/01/31 07:55:20;;;;;;;22.95;8.10;;;4.50;99.90;;;;;;5082360;28;20411;-60
2023/01/31 07:57:47;;;;;;;24.08;8.00;;;4.50;99.90;;;;;;5082865;28;20473;-61
2023/01/31 08:05:40;;;;;;;23.60;7.50;;;4.60;99.90;;;;;;5082073;28;20432;-62
2023/01/31 08:08:10;;;;;;;27.90;7.70;;;4.50;99.90;;;;;;5082085;28;20408;-62
2023/01/31 08:10:37;;;;;;;21.08;6.88;;;4.60;99.90;;;;;;5082494;28;20411;-61
2023/01/31 08:13:05;;;;;;;26.92;7.07;;;4.60;99.90;;;;;;5084772;28;20436;-62
2023/01/31 08:15:31;;;;;;;23.00;6.75;;;4.60;99.90;;;;;;5082872;28;20502;-64
2023/01/31 08:17:58;;;;;;;20.90;6.90;;;4.70;99.90;;;;;;5081223;28;20407;-65
2023/01/31 08:20:25;;;;;;;23.13;7.47;;;4.60;99.90;;;;;;5082520;28;20878;-64
2023/01/31 08:22:53;;;;;;;20.98;6.93;;;4.70;99.90;;;;;;5082462;28;20805;-64
2023/01/31 08:25:20;;;;;;;24.30;7.05;;;4.80;99.90;;;;;;5084292;28;20471;-63
2023/01/31 08:27:47;;;;;;;23.70;6.93;;;4.80;99.90;;;;;;5080868;28;20415;-64
2023/01/31 08:30:14;;;;;;;19.73;6.13;;;4.80;99.90;;;;;;5081730;28;20894;-64
2023/01/31 08:32:41;;;;;;;23.30;6.65;;;4.80;99.90;;;;;;5083707;28;20423;-63
2023/01/31 08:35:08;;;;;;;28.13;6.67;;;4.80;99.90;;;;;;5083921;28;20397;-64
2023/01/31 08:37:35;;;;;;;20.33;6.78;;;4.80;99.90;;;;;;5077935;28;20809;-65
2023/01/31 08:40:03;;;;;;;14.55;6.03;;;4.70;99.90;;;;;;5082591;28;20423;-64
2023/01/31 08:42:30;;;;;;;16.88;6.15;;;4.80;99.90;;;;;;5083532;28;20819;-64
2023/01/31 08:44:56;;;;;;;20.83;5.85;;;4.80;99.90;;;;;;5082101;28;20980;-65
2023/01/31 08:47:23;;;;;;;23.75;6.65;;;4.90;99.90;;;;;;5081137;28;20809;-63
2023/01/31 08:49:50;;;;;;;24.50;6.38;;;4.70;99.90;;;;;;5076947;28;20838;-64
2023/01/31 08:52:16;;;;;;;22.08;6.05;;;4.70;99.90;;;;;;5083037;28;20471;-64
2023/01/31 08:54:43;;;;;;;22.65;6.80;;;4.70;99.90;;;;;;5081219;28;20411;-64
2023/01/31 08:57:11;;;;;;;21.23;6.43;;;4.80;99.90;;;;;;5082986;28;20423;-64
2023/01/31 08:59:38;;;;;;;25.75;6.80;;;4.80;99.90;;;;;;5082111;28;20409;-63
2023/01/31 09:02:04;;;;;;;30.50;7.57;;;4.60;99.90;;;;;;5081287;28;20415;-64
2023/01/31 09:04:31;;;;;;;19.67;6.28;;;4.60;99.90;;;;;;5081945;28;20470;-64
2023/01/31 09:06:58;;;;;;;25.00;6.55;;;4.40;99.90;;;;;;5083275;28;20895;-64
2023/01/31 09:09:25;;;;;;;16.92;5.95;;;4.40;99.90;;;;;;5081804;28;20945;-64
2023/01/31 09:11:51;;;;;;;18.13;5.97;;;4.30;99.90;;;;;;5080933;28;21115;-64
2023/01/31 09:14:20;;;;;;;19.48;6.20;;;4.30;99.90;;;;;;5077332;28;20412;-64
2023/01/31 09:16:46;;;;;;;21.10;7.40;;;4.40;99.90;;;;;;5080995;28;20415;-64
2023/01/31 09:19:13;;;;;;;22.60;7.43;;;4.30;99.90;;;;;;5080815;28;20496;-65
2023/01/31 09:21:40;;;;;;;21.55;6.70;;;4.30;99.90;;;;;;5082290;28;20410;-64
2023/01/31 09:24:07;;;;;;;20.00;6.97;;;4.30;99.90;;;;;;5083532;28;20773;-64
2023/01/31 09:26:33;;;;;;;28.23;7.23;;;4.30;99.90;;;;;;5080894;28;20411;-64
2023/01/31 09:29:01;;;;;;;23.95;6.60;;;4.30;99.90;;;;;;5083235;28;20450;-62
2023/01/31 09:31:29;;;;;;;24.92;6.18;;;4.40;99.90;;;;;;5080711;28;20498;-65
2023/01/31 09:33:55;;;;;;;22.90;6.40;;;4.60;99.90;;;;;;5081692;28;20410;-64
2023/01/31 09:36:23;;;;;;;18.67;5.30;;;4.70;99.90;;;;;;5082851;28;20398;-64
2023/01/31 09:38:54;;;;;;;25.02;6.43;;;4.70;99.90;;;;;;5080994;28;20507;-64
2023/01/31 09:41:27;;;;;;;18.13;5.75;;;4.70;99.90;;;;;;5080198;28;20966;-63
2023/01/31 09:43:58;;;;;;;20.20;5.68;;;4.70;99.90;;;;;;5081340;28;20412;-64
2023/01/31 09:46:31;;;;;;;17.80;5.47;;;4.70;99.90;;;;;;5082339;28;20422;-64
2023/01/31 09:49:04;;;;;;;18.92;5.18;;;4.60;99.90;;;;;;5080083;28;20412;-64
2023/01/31 09:51:32;;;;;;;19.53;5.20;;;4.70;99.90;;;;;;5077909;28;20480;-64
2023/01/31 09:54:00;;;;;;;17.23;4.63;;;4.80;99.90;;;;;;5079488;28;20469;-64
2023/01/31 09:56:34;;;;;;;23.17;5.47;;;4.70;99.90;;;;;;5076487;28;20457;-64
2023/01/31 09:59:13;;;;;;;14.40;5.00;;;4.90;99.90;;;;;;5083754;28;20439;-62
2023/01/31 10:01:45;;;;;;;14.35;5.03;;;4.90;99.90;;;;;;5080051;28;20409;-62
2023/01/31 10:04:30;;;;;;;19.97;4.93;;;5.00;99.90;;;;;;5076942;28;20843;-64
2023/01/31 10:07:03;;;;;;;18.77;5.07;;;5.00;99.90;;;;;;5077367;28;20414;-64
2023/01/31 10:09:35;;;;;;;19.45;5.05;;;5.10;99.90;;;;;;5079875;28;20419;-64
2023/01/31 10:12:09;;;;;;;16.45;5.00;;;5.10;99.90;;;;;;5080777;28;20418;-64
2023/01/31 10:14:42;;;;;;;18.92;5.38;;;4.90;99.90;;;;;;5076688;28;20404;-62
2023/01/31 10:17:15;;;;;;;16.13;5.05;;;5.00;99.90;;;;;;5079222;28;20473;-63
2023/01/31 10:19:49;;;;;;;22.15;5.70;;;4.90;99.90;;;;;;5081072;28;20443;-63
2023/01/31 10:22:22;;;;;;;14.05;4.82;;;4.90;99.90;;;;;;5076077;28;20407;-64
2023/01/31 10:24:55;;;;;;;20.13;6.35;;;4.80;99.90;;;;;;5079587;28;20426;-64
2023/01/31 10:27:36;;;;;;;21.33;6.30;;;4.80;99.90;;;;;;5075934;28;20415;-64
2023/01/31 10:30:07;;;;;;;20.23;6.18;;;4.80;99.90;;;;;;5076562;28;20885;-64
2023/01/31 10:32:43;;;;;;;17.33;6.32;;;4.80;99.90;;;;;;5081993;28;20406;-63
2023/01/31 10:35:15;;;;;;;19.05;7.03;;;4.80;99.90;;;;;;5081329;28;20494;-64
2023/01/31 10:37:47;;;;;;;19.60;6.88;;;4.90;99.90;;;;;;5076334;28;20412;-64
2023/01/31 10:40:17;;;;;;;18.25;6.47;;;4.80;99.90;;;;;;5079572;28;20415;-64
2023/01/31 10:42:49;;;;;;;17.45;6.72;;;4.80;99.90;;;;;;5077257;28;20414;-64
2023/01/31 10:45:18;;;;;;;21.92;7.43;;;4.80;99.90;;;;;;5079422;28;20431;-63
2023/01/31 10:47:50;;;;;;;16.88;6.40;;;4.80;99.90;;;;;;5080531;28;20414;-64
2023/01/31 10:50:21;;;;;;;21.50;7.05;;;4.80;99.90;;;;;;5081126;28;20781;-63
2023/01/31 10:53:08;;;;;;;16.92;6.82;;;4.60;99.90;;;;;;5080830;28;20897;-64
2023/01/31 10:55:55;;;;;;;24.67;7.32;;;4.60;99.90;;;;;;5079653;28;20455;-64
2023/01/31 10:58:22;;;;;;;23.33;8.03;;;4.70;99.90;;;;;;5078093;28;20804;-64
2023/01/31 11:00:50;;;;;;;21.38;7.13;;;4.80;99.90;;;;;;5081157;28;20497;-64
2023/01/31 11:03:17;;;;;;;20.35;8.38;;;4.70;99.90;;;;;;5080854;28;20459;-62
2023/01/31 11:05:49;;;;;;;21.42;8.30;;;4.70;99.90;;;;;;5081335;28;20423;-64
2023/01/31 11:08:31;;;;;;;22.70;8.07;;;4.80;99.90;;;;;;5083392;28;20439;-64
2023/01/31 11:11:04;;;;;;;24.58;8.02;;;4.80;99.90;;;;;;5083042;28;20876;-64
2023/01/31 11:13:31;;;;;;;20.63;8.25;;;4.90;99.90;;;;;;5080485;28;20813;-64
2023/01/31 11:15:58;;;;;;;24.07;8.87;;;4.90;99.90;;;;;;5083388;28;20434;-64
2023/01/31 11:18:29;;;;;;;16.58;7.60;;;4.90;99.90;;;;;;5082690;28;20874;-62
2023/01/31 11:20:59;;;;;;;24.10;9.07;;;4.90;99.90;;;;;;5083721;28;20412;-63
2023/01/31 11:23:29;;;;;;;24.35;8.38;;;4.90;99.90;;;;;;5079226;28;20943;-64
2023/01/31 11:25:57;;;;;;;19.65;8.18;;;4.90;99.90;;;;;;5083897;28;20476;-63
2023/01/31 11:28:32;;;;;;;21.38;8.95;;;5.00;99.90;;;;;;5082861;28;20419;-63
2023/01/31 11:31:00;;;;;;;21.05;8.10;;;5.10;99.90;;;;;;5082513;28;20413;-62
2023/01/31 11:33:38;;;;;;;21.73;8.27;;;5.10;99.90;;;;;;5083098;28;20907;-63
2023/01/31 11:36:11;;;;;;;21.80;7.47;;;5.10;99.90;;;;;;5082479;28;20418;-63
2023/01/31 11:38:38;;;;;;;17.33;7.38;;;5.10;99.90;;;;;;5083414;28;20419;-63
2023/01/31 11:41:28;;;;;;;19.85;7.88;;;5.20;99.90;;;;;;5085188;28;20864;-63
2023/01/31 11:44:11;;;;;;;24.75;8.57;;;5.20;99.90;;;;;;5080071;28;20418;-62
2023/01/31 11:46:55;;;;;;;22.60;8.45;;;5.30;99.90;;;;;;5080528;28;20431;-61
2023/01/31 11:49:28;;;;;;;21.15;8.43;;;5.30;99.90;;;;;;5077101;28;20425;-63
2023/01/31 11:51:57;;;;;;;21.98;8.25;;;5.30;99.90;;;;;;5084845;28;20463;-63
2023/01/31 11:54:28;;;;;;;21.48;8.43;;;5.40;99.90;;;;;;5083452;28;20457;-61
2023/01/31 11:56:56;;;;;;;21.25;8.30;;;5.40;99.90;;;;;;5082333;28;20473;-61
2023/01/31 11:59:27;;;;;;;22.23;8.50;;;5.40;99.90;;;;;;5083018;28;20491;-62
2023/01/31 12:01:57;;;;;;;24.23;9.18;;;5.40;99.90;;;;;;5084723;28;20414;-61
2023/01/31 12:04:39;;;;;;;22.48;8.75;;;5.50;99.90;;;;;;5083604;28;20414;-61
2023/01/31 12:07:21;;;;;;;19.40;8.85;;;5.50;99.90;;;;;;5080913;28;20423;-61
2023/01/31 12:09:48;;;;;;;21.58;8.75;;;5.60;99.90;;;;;;5081009;28;20399;-62
2023/01/31 12:12:26;;;;;;;21.27;9.10;;;5.60;99.90;;;;;;5082187;28;20801;-62
2023/01/31 12:14:59;;;;;;;21.58;9.27;;;5.50;99.90;;;;;;5082342;28;20890;-61
2023/01/31 12:17:29;;;;;;;21.00;8.75;;;5.60;99.90;;;;;;5078374;28;20909;-61
2023/01/31 12:20:20;;;;;;;22.67;9.30;;;5.60;99.90;;;;;;5081935;28;20490;-61
2023/01/31 12:22:55;;;;;;;24.92;10.45;;;5.70;99.90;;;;;;5082135;28;20806;-62
2023/01/31 12:25:32;;;;;;;20.25;9.27;;;5.70;99.90;;;;;;5082039;28;20435;-61
2023/01/31 12:28:08;;;;;;;20.95;9.45;;;5.70;99.90;;;;;;5084714;28;20981;-61
2023/01/31 12:31:01;;;;;;;23.05;9.88;;;5.70;99.90;;;;;;5080164;28;20502;-61
2023/01/31 12:33:39;;;;;;;19.85;8.90;;;5.70;99.90;;;;;;5081974;28;20814;-61
2023/01/31 12:36:22;;;;;;;20.13;9.55;;;5.70;99.90;;;;;;5080112;28;20404;-63
2023/01/31 12:39:03;;;;;;;18.90;9.27;;;5.80;99.90;;;;;;5080964;28;20821;-61
2023/01/31 12:41:33;;;;;;;20.02;9.90;;;5.80;99.90;;;;;;5077888;28;20419;-60
2023/01/31 12:44:24;;;;;;;16.30;9.38;;;5.80;99.90;;;;;;5084047;28;20414;-61
2023/01/31 12:47:06;;;;;;;21.67;9.65;;;5.90;99.90;;;;;;5068803;28;20427;-62
2023/01/31 12:49:53;;;;;;;16.38;8.90;;;5.90;99.90;;;;;;5078367;28;20410;-62
2023/01/31 12:52:28;;;;;;;18.63;9.60;;;5.90;99.90;;;;;;5078892;28;20404;-61
2023/01/31 12:55:17;;;;;;;22.33;9.77;;;5.90;99.90;;;;;;5081086;28;20905;-60
2023/01/31 12:57:53;;;;;;;20.55;9.07;;;6.00;99.90;;;;;;5075302;28;20862;-61
2023/01/31 13:00:29;;;;;;;20.73;9.88;;;6.00;99.90;;;;;;5080291;28;20415;-60
2023/01/31 13:03:17;;;;;;;19.80;9.48;;;6.10;99.90;;;;;;5083296;28;20467;-61
2023/01/31 13:05:51;;;;;;;17.75;9.68;;;5.90;99.90;;;;;;5082306;28;20418;-63
2023/01/31 13:08:21;;;;;;;22.08;10.07;;;6.00;99.90;;;;;;5082775;28;20414;-62
2023/01/31 13:10:56;;;;;;;21.23;10.75;;;6.00;99.90;;;;;;5081118;28;20411;-61
2023/01/31 13:13:27;;;;;;;23.88;10.85;;;6.00;99.90;;;;;;5080883;28;20838;-62
2023/01/31 13:15:58;;;;;;;21.58;12.10;;;6.00;99.90;;;;;;5078473;28;20412;-61